This is the latest recevied weather packets stored in our database for station/object N2WH. If no packets are shown the sender has not sent any weather packets the latest 10 day(s).
| Time | Temp. | Humidity | Pressure | Rain* | Wind** | Luminosity | Snow |
|---|---|---|---|---|---|---|---|
| 1777328709 | 18.33° C | 39% | 1024 hPa | 0 mm | - | 26 W/m² | - |
| 1777328406 | 18.89° C | 39% | 1023.9 hPa | 0 mm | - | 26 W/m² | - |
| 1777328105 | 18.89° C | 39% | 1024 hPa | 0 mm | - | 28 W/m² | - |
| 1777327803 | 18.89° C | 37% | 1024.1 hPa | 0 mm | - | 30 W/m² | - |
| 1777327500 | 18.89° C | 38% | 1024 hPa | 0 mm | - | 29 W/m² | - |
| 1777327197 | 18.89° C | 37% | 1024.2 hPa | 0 mm | - | 33 W/m² | - |
| 1777326894 | 19.44° C | 37% | 1024.3 hPa | 0 mm | - | 31 W/m² | - |
| 1777326591 | 18.89° C | 36% | 1024.3 hPa | 0 mm | - | 30 W/m² | - |
| 1777326289 | 18.89° C | 35% | 1023.9 hPa | 0 mm | - | 32 W/m² | - |
| 1777325986 | 19.44° C | 36% | 1024.2 hPa | 0 mm | - | 54 W/m² | - |
| 1777325684 | 19.44° C | 36% | 1024.2 hPa | 0 mm | - | 34 W/m² | - |
| 1777325382 | 19.44° C | 35% | 1024.2 hPa | 0 mm | - | 34 W/m² | - |
| 1777325079 | 20° C | 35% | 1024.1 hPa | 0 mm | - | 35 W/m² | - |
| 1777324775 | 20° C | 35% | 1024.3 hPa | 0 mm | - | 36 W/m² | - |
| 1777324473 | 20° C | 34% | 1024.4 hPa | 0 mm | - | 38 W/m² | - |
| 1777324170 | 20° C | 34% | 1024.5 hPa | 0 mm | - | 39 W/m² | - |
| 1777323869 | 20.56° C | 34% | 1024.4 hPa | 0 mm | - | 46 W/m² | - |
| 1777323565 | 20° C | 37% | 1024.3 hPa | 0 mm | - | 50 W/m² | - |
| 1777323262 | 20.56° C | 36% | 1024.3 hPa | 0 mm | - | 47 W/m² | - |
| 1777322960 | 21.11° C | 37% | 1024.2 hPa | 0 mm | - | 134 W/m² | - |
| 1777322658 | 21.67° C | 36% | 1024.1 hPa | 0 mm | - | 173 W/m² | - |
| 1777322355 | 22.22° C | 36% | 1023.9 hPa | 0 mm | - | 189 W/m² | - |
| 1777322052 | 22.22° C | 37% | 1024.3 hPa | 0 mm | - | 216 W/m² | - |
| 1777321749 | 21.67° C | 35% | 1024.3 hPa | 0 mm | - | 146 W/m² | - |
| 1777321445 | 22.22° C | 36% | 1024.1 hPa | 0 mm | - | 277 W/m² | - |
* Rain latest hour (hover to see other rain measurements)
** Current wind speed in m/s (hover to see current wind gust speed)